sensor_id;sensor_type;location;lat;lon;timestamp;P1;durP1;ratioP1;P2;durP2;ratioP2
15952;SDS011;8075;47.766;8.846;2023-11-18T00:00:18;5.50;;;5.10;;
15952;SDS011;8075;47.766;8.846;2023-11-18T00:02:44;4.80;;;4.40;;
15952;SDS011;8075;47.766;8.846;2023-11-18T00:05:11;3.90;;;3.60;;
15952;SDS011;8075;47.766;8.846;2023-11-18T00:07:37;4.60;;;4.20;;
15952;SDS011;8075;47.766;8.846;2023-11-18T00:10:03;4.10;;;3.80;;
15952;SDS011;8075;47.766;8.846;2023-11-18T00:12:30;4.15;;;3.85;;
15952;SDS011;8075;47.766;8.846;2023-11-18T00:14:56;4.88;;;4.47;;
15952;SDS011;8075;47.766;8.846;2023-11-18T00:17:22;7.20;;;6.60;;
15952;SDS011;8075;47.766;8.846;2023-11-18T00:19:48;6.55;;;5.95;;
15952;SDS011;8075;47.766;8.846;2023-11-18T00:22:14;5.15;;;4.75;;
15952;SDS011;8075;47.766;8.846;2023-11-18T00:24:40;4.30;;;4.00;;
15952;SDS011;8075;47.766;8.846;2023-11-18T00:27:06;4.50;;;4.20;;
15952;SDS011;8075;47.766;8.846;2023-11-18T00:29:34;5.07;;;4.18;;
15952;SDS011;8075;47.766;8.846;2023-11-18T00:32:02;4.28;;;3.97;;
15952;SDS011;8075;47.766;8.846;2023-11-18T00:34:29;3.90;;;3.60;;
15952;SDS011;8075;47.766;8.846;2023-11-18T00:36:55;4.40;;;4.10;;
15952;SDS011;8075;47.766;8.846;2023-11-18T00:39:25;4.80;;;4.50;;
15952;SDS011;8075;47.766;8.846;2023-11-18T00:41:52;4.00;;;3.65;;
15952;SDS011;8075;47.766;8.846;2023-11-18T00:44:18;4.53;;;4.20;;
15952;SDS011;8075;47.766;8.846;2023-11-18T00:46:44;4.20;;;3.90;;
15952;SDS011;8075;47.766;8.846;2023-11-18T00:49:10;4.65;;;4.28;;
15952;SDS011;8075;47.766;8.846;2023-11-18T00:51:36;4.20;;;3.90;;
15952;SDS011;8075;47.766;8.846;2023-11-18T00:54:03;4.72;;;4.32;;
15952;SDS011;8075;47.766;8.846;2023-11-18T00:56:32;4.60;;;4.30;;
15952;SDS011;8075;47.766;8.846;2023-11-18T00:58:59;4.30;;;4.00;;
15952;SDS011;8075;47.766;8.846;2023-11-18T01:01:26;4.35;;;3.95;;
15952;SDS011;8075;47.766;8.846;2023-11-18T01:03:52;4.10;;;3.80;;
15952;SDS011;8075;47.766;8.846;2023-11-18T01:06:18;3.90;;;3.58;;
15952;SDS011;8075;47.766;8.846;2023-11-18T01:08:45;4.63;;;4.22;;
15952;SDS011;8075;47.766;8.846;2023-11-18T01:11:15;4.30;;;4.00;;
15952;SDS011;8075;47.766;8.846;2023-11-18T01:13:43;3.97;;;3.67;;
15952;SDS011;8075;47.766;8.846;2023-11-18T01:16:09;3.65;;;3.42;;
15952;SDS011;8075;47.766;8.846;2023-11-18T01:18:36;3.83;;;3.53;;
15952;SDS011;8075;47.766;8.846;2023-11-18T01:21:02;4.70;;;3.80;;
15952;SDS011;8075;47.766;8.846;2023-11-18T01:23:28;3.70;;;3.40;;
15952;SDS011;8075;47.766;8.846;2023-11-18T01:25:54;3.40;;;3.20;;
15952;SDS011;8075;47.766;8.846;2023-11-18T01:28:21;3.92;;;3.63;;
15952;SDS011;8075;47.766;8.846;2023-11-18T01:30:47;3.72;;;3.42;;
15952;SDS011;8075;47.766;8.846;2023-11-18T01:33:13;4.20;;;3.90;;
15952;SDS011;8075;47.766;8.846;2023-11-18T01:35:39;3.80;;;3.50;;
15952;SDS011;8075;47.766;8.846;2023-11-18T01:38:06;3.63;;;3.33;;
15952;SDS011;8075;47.766;8.846;2023-11-18T01:40:33;4.18;;;3.78;;
15952;SDS011;8075;47.766;8.846;2023-11-18T01:42:59;3.55;;;3.30;;
15952;SDS011;8075;47.766;8.846;2023-11-18T01:45:24;5.75;;;5.18;;
15952;SDS011;8075;47.766;8.846;2023-11-18T01:47:51;36.00;;;15.02;;
15952;SDS011;8075;47.766;8.846;2023-11-18T01:50:17;4.03;;;3.70;;
15952;SDS011;8075;47.766;8.846;2023-11-18T01:52:44;31.95;;;15.32;;
15952;SDS011;8075;47.766;8.846;2023-11-18T01:55:11;12.45;;;8.48;;
15952;SDS011;8075;47.766;8.846;2023-11-18T01:57:38;31.92;;;14.98;;
15952;SDS011;8075;47.766;8.846;2023-11-18T02:00:08;31.10;;;15.55;;
15952;SDS011;8075;47.766;8.846;2023-11-18T02:02:36;67.13;;;27.75;;
15952;SDS011;8075;47.766;8.846;2023-11-18T02:05:02;39.15;;;18.00;;
15952;SDS011;8075;47.766;8.846;2023-11-18T02:07:31;21.88;;;12.30;;
15952;SDS011;8075;47.766;8.846;2023-11-18T02:09:58;36.33;;;17.35;;
15952;SDS011;8075;47.766;8.846;2023-11-18T02:14:51;9.48;;;8.10;;
15952;SDS011;8075;47.766;8.846;2023-11-18T02:17:20;12.40;;;9.82;;
15952;SDS011;8075;47.766;8.846;2023-11-18T02:19:49;5.30;;;4.90;;
15952;SDS011;8075;47.766;8.846;2023-11-18T02:22:16;8.75;;;7.22;;
15952;SDS011;8075;47.766;8.846;2023-11-18T02:24:42;20.52;;;12.77;;
15952;SDS011;8075;47.766;8.846;2023-11-18T02:27:08;6.72;;;6.03;;
15952;SDS011;8075;47.766;8.846;2023-11-18T02:29:37;7.47;;;6.78;;
15952;SDS011;8075;47.766;8.846;2023-11-18T02:34:45;11.15;;;8.60;;
15952;SDS011;8075;47.766;8.846;2023-11-18T02:37:16;19.00;;;12.57;;
15952;SDS011;8075;47.766;8.846;2023-11-18T02:39:43;15.95;;;12.20;;
15952;SDS011;8075;47.766;8.846;2023-11-18T02:42:09;4.90;;;4.50;;
15952;SDS011;8075;47.766;8.846;2023-11-18T02:44:37;5.40;;;4.90;;
15952;SDS011;8075;47.766;8.846;2023-11-18T02:47:03;8.48;;;6.97;;
15952;SDS011;8075;47.766;8.846;2023-11-18T02:49:30;5.35;;;4.93;;
15952;SDS011;8075;47.766;8.846;2023-11-18T02:51:56;5.30;;;4.90;;
15952;SDS011;8075;47.766;8.846;2023-11-18T02:54:22;4.88;;;4.47;;
15952;SDS011;8075;47.766;8.846;2023-11-18T02:56:48;4.60;;;4.20;;
15952;SDS011;8075;47.766;8.846;2023-11-18T02:59:17;4.95;;;4.57;;
15952;SDS011;8075;47.766;8.846;2023-11-18T03:01:43;4.53;;;4.22;;
15952;SDS011;8075;47.766;8.846;2023-11-18T03:04:10;4.73;;;4.00;;
15952;SDS011;8075;47.766;8.846;2023-11-18T03:06:36;4.28;;;3.97;;
15952;SDS011;8075;47.766;8.846;2023-11-18T03:09:02;4.13;;;3.83;;
15952;SDS011;8075;47.766;8.846;2023-11-18T03:11:32;4.47;;;4.10;;
15952;SDS011;8075;47.766;8.846;2023-11-18T03:13:58;3.90;;;3.60;;
15952;SDS011;8075;47.766;8.846;2023-11-18T03:16:24;4.00;;;3.70;;
15952;SDS011;8075;47.766;8.846;2023-11-18T03:18:50;4.17;;;3.87;;
15952;SDS011;8075;47.766;8.846;2023-11-18T03:21:16;4.82;;;4.53;;
15952;SDS011;8075;47.766;8.846;2023-11-18T03:23:44;5.15;;;4.75;;
15952;SDS011;8075;47.766;8.846;2023-11-18T03:26:10;5.93;;;5.43;;
15952;SDS011;8075;47.766;8.846;2023-11-18T03:28:37;5.88;;;5.40;;
15952;SDS011;8075;47.766;8.846;2023-11-18T03:31:03;5.50;;;5.10;;
15952;SDS011;8075;47.766;8.846;2023-11-18T03:33:29;5.53;;;5.13;;
15952;SDS011;8075;47.766;8.846;2023-11-18T03:35:55;5.20;;;4.80;;
15952;SDS011;8075;47.766;8.846;2023-11-18T03:38:22;4.70;;;4.30;;
15952;SDS011;8075;47.766;8.846;2023-11-18T03:40:48;4.70;;;4.30;;
15952;SDS011;8075;47.766;8.846;2023-11-18T03:43:18;4.63;;;4.22;;
15952;SDS011;8075;47.766;8.846;2023-11-18T03:45:44;4.45;;;4.15;;
15952;SDS011;8075;47.766;8.846;2023-11-18T03:48:10;4.20;;;3.88;;
15952;SDS011;8075;47.766;8.846;2023-11-18T03:50:39;3.95;;;3.65;;
15952;SDS011;8075;47.766;8.846;2023-11-18T03:53:05;4.43;;;3.90;;
15952;SDS011;8075;47.766;8.846;2023-11-18T03:55:31;3.70;;;3.40;;
15952;SDS011;8075;47.766;8.846;2023-11-18T03:57:58;3.90;;;3.60;;
15952;SDS011;8075;47.766;8.846;2023-11-18T04:00:24;3.47;;;3.25;;
15952;SDS011;8075;47.766;8.846;2023-11-18T04:02:55;3.45;;;3.25;;
15952;SDS011;8075;47.766;8.846;2023-11-18T04:05:24;3.40;;;3.20;;
15952;SDS011;8075;47.766;8.846;2023-11-18T04:07:50;3.10;;;2.90;;
15952;SDS011;8075;47.766;8.846;2023-11-18T04:10:17;3.40;;;3.20;;
15952;SDS011;8075;47.766;8.846;2023-11-18T04:12:43;3.67;;;3.38;;
15952;SDS011;8075;47.766;8.846;2023-11-18T04:15:13;4.20;;;3.90;;
15952;SDS011;8075;47.766;8.846;2023-11-18T04:17:40;4.47;;;4.13;;
15952;SDS011;8075;47.766;8.846;2023-11-18T04:20:06;3.70;;;3.40;;
15952;SDS011;8075;47.766;8.846;2023-11-18T04:22:39;4.05;;;3.75;;
15952;SDS011;8075;47.766;8.846;2023-11-18T04:25:06;3.80;;;3.50;;
15952;SDS011;8075;47.766;8.846;2023-11-18T04:27:33;4.13;;;3.83;;
15952;SDS011;8075;47.766;8.846;2023-11-18T04:29:59;4.40;;;4.10;;
15952;SDS011;8075;47.766;8.846;2023-11-18T04:32:24;3.87;;;3.60;;
15952;SDS011;8075;47.766;8.846;2023-11-18T04:34:52;4.25;;;3.95;;
15952;SDS011;8075;47.766;8.846;2023-11-18T04:37:18;3.97;;;3.67;;
15952;SDS011;8075;47.766;8.846;2023-11-18T04:39:44;4.20;;;3.90;;
15952;SDS011;8075;47.766;8.846;2023-11-18T04:42:10;4.13;;;3.83;;
15952;SDS011;8075;47.766;8.846;2023-11-18T04:44:35;4.65;;;4.25;;
15952;SDS011;8075;47.766;8.846;2023-11-18T04:47:01;4.40;;;4.10;;
15952;SDS011;8075;47.766;8.846;2023-11-18T04:49:27;4.90;;;4.50;;
15952;SDS011;8075;47.766;8.846;2023-11-18T04:51:53;4.57;;;4.18;;
15952;SDS011;8075;47.766;8.846;2023-11-18T04:54:19;4.40;;;4.10;;
15952;SDS011;8075;47.766;8.846;2023-11-18T04:56:45;3.63;;;3.42;;
15952;SDS011;8075;47.766;8.846;2023-11-18T04:59:12;3.50;;;3.30;;
15952;SDS011;8075;47.766;8.846;2023-11-18T05:01:38;3.30;;;3.10;;
15952;SDS011;8075;47.766;8.846;2023-11-18T05:04:04;3.22;;;2.92;;
15952;SDS011;8075;47.766;8.846;2023-11-18T05:06:33;3.00;;;2.80;;
15952;SDS011;8075;47.766;8.846;2023-11-18T05:08:59;3.08;;;2.88;;
15952;SDS011;8075;47.766;8.846;2023-11-18T05:11:25;3.10;;;2.85;;
15952;SDS011;8075;47.766;8.846;2023-11-18T05:13:51;3.40;;;3.10;;
15952;SDS011;8075;47.766;8.846;2023-11-18T05:16:18;3.00;;;2.80;;
15952;SDS011;8075;47.766;8.846;2023-11-18T05:18:44;3.30;;;3.00;;
15952;SDS011;8075;47.766;8.846;2023-11-18T05:21:10;3.10;;;2.90;;
15952;SDS011;8075;47.766;8.846;2023-11-18T05:23:36;2.80;;;2.60;;
15952;SDS011;8075;47.766;8.846;2023-11-18T05:26:02;3.13;;;2.92;;
15952;SDS011;8075;47.766;8.846;2023-11-18T05:28:31;3.03;;;2.83;;
15952;SDS011;8075;47.766;8.846;2023-11-18T05:30:58;3.20;;;2.90;;
15952;SDS011;8075;47.766;8.846;2023-11-18T05:33:26;3.00;;;2.80;;
15952;SDS011;8075;47.766;8.846;2023-11-18T05:35:53;2.70;;;2.50;;
15952;SDS011;8075;47.766;8.846;2023-11-18T05:38:20;3.20;;;3.00;;
15952;SDS011;8075;47.766;8.846;2023-11-18T05:40:51;3.00;;;2.70;;
15952;SDS011;8075;47.766;8.846;2023-11-18T05:43:24;3.10;;;2.80;;
15952;SDS011;8075;47.766;8.846;2023-11-18T05:45:54;3.20;;;2.97;;
15952;SDS011;8075;47.766;8.846;2023-11-18T05:48:38;3.55;;;3.10;;
15952;SDS011;8075;47.766;8.846;2023-11-18T05:51:04;3.73;;;3.43;;
15952;SDS011;8075;47.766;8.846;2023-11-18T05:53:30;3.88;;;3.58;;
15952;SDS011;8075;47.766;8.846;2023-11-18T05:55:56;4.82;;;4.40;;
15952;SDS011;8075;47.766;8.846;2023-11-18T05:58:22;3.80;;;3.50;;
15952;SDS011;8075;47.766;8.846;2023-11-18T06:00:48;3.67;;;3.37;;
15952;SDS011;8075;47.766;8.846;2023-11-18T06:03:14;3.90;;;3.60;;
15952;SDS011;8075;47.766;8.846;2023-11-18T06:05:40;4.00;;;3.70;;
15952;SDS011;8075;47.766;8.846;2023-11-18T06:08:06;4.78;;;4.28;;
15952;SDS011;8075;47.766;8.846;2023-11-18T06:10:33;4.15;;;3.85;;
15952;SDS011;8075;47.766;8.846;2023-11-18T06:12:59;4.30;;;3.70;;
15952;SDS011;8075;47.766;8.846;2023-11-18T06:15:25;3.50;;;3.30;;
15952;SDS011;8075;47.766;8.846;2023-11-18T06:17:52;3.80;;;3.50;;
15952;SDS011;8075;47.766;8.846;2023-11-18T06:20:20;3.38;;;3.17;;
15952;SDS011;8075;47.766;8.846;2023-11-18T06:22:48;3.47;;;3.28;;
15952;SDS011;8075;47.766;8.846;2023-11-18T06:25:14;3.53;;;3.25;;
15952;SDS011;8075;47.766;8.846;2023-11-18T06:27:42;3.40;;;3.20;;
15952;SDS011;8075;47.766;8.846;2023-11-18T06:30:11;7.95;;;7.25;;
15952;SDS011;8075;47.766;8.846;2023-11-18T06:32:37;4.40;;;4.07;;
15952;SDS011;8075;47.766;8.846;2023-11-18T06:35:04;3.93;;;3.63;;
15952;SDS011;8075;47.766;8.846;2023-11-18T06:37:33;3.58;;;3.28;;
15952;SDS011;8075;47.766;8.846;2023-11-18T06:40:00;4.10;;;3.70;;
15952;SDS011;8075;47.766;8.846;2023-11-18T06:42:26;3.72;;;3.42;;
15952;SDS011;8075;47.766;8.846;2023-11-18T06:44:52;3.58;;;3.20;;
15952;SDS011;8075;47.766;8.846;2023-11-18T06:47:18;3.50;;;3.30;;
15952;SDS011;8075;47.766;8.846;2023-11-18T06:49:44;3.75;;;3.45;;
15952;SDS011;8075;47.766;8.846;2023-11-18T06:52:12;3.90;;;3.60;;
15952;SDS011;8075;47.766;8.846;2023-11-18T06:54:40;4.15;;;3.75;;
15952;SDS011;8075;47.766;8.846;2023-11-18T06:57:07;4.03;;;3.70;;
15952;SDS011;8075;47.766;8.846;2023-11-18T06:59:33;3.70;;;3.40;;
15952;SDS011;8075;47.766;8.846;2023-11-18T07:01:59;3.72;;;3.42;;
15952;SDS011;8075;47.766;8.846;2023-11-18T07:04:25;3.90;;;3.60;;
15952;SDS011;8075;47.766;8.846;2023-11-18T07:06:51;3.78;;;3.40;;
15952;SDS011;8075;47.766;8.846;2023-11-18T07:09:17;3.90;;;3.60;;
15952;SDS011;8075;47.766;8.846;2023-11-18T07:11:46;4.10;;;3.80;;
15952;SDS011;8075;47.766;8.846;2023-11-18T07:14:12;3.60;;;3.30;;
15952;SDS011;8075;47.766;8.846;2023-11-18T07:16:39;4.13;;;3.83;;
15952;SDS011;8075;47.766;8.846;2023-11-18T07:19:06;4.45;;;4.07;;
15952;SDS011;8075;47.766;8.846;2023-11-18T07:21:32;4.05;;;3.72;;
15952;SDS011;8075;47.766;8.846;2023-11-18T07:23:59;3.35;;;3.15;;
15952;SDS011;8075;47.766;8.846;2023-11-18T07:26:25;3.40;;;2.95;;
15952;SDS011;8075;47.766;8.846;2023-11-18T07:28:51;3.20;;;3.00;;
15952;SDS011;8075;47.766;8.846;2023-11-18T07:31:17;3.60;;;3.30;;
15952;SDS011;8075;47.766;8.846;2023-11-18T07:33:44;3.93;;;3.63;;
15952;SDS011;8075;47.766;8.846;2023-11-18T07:36:14;3.90;;;3.60;;
15952;SDS011;8075;47.766;8.846;2023-11-18T07:38:40;3.60;;;3.30;;
15952;SDS011;8075;47.766;8.846;2023-11-18T07:41:06;3.30;;;3.00;;
15952;SDS011;8075;47.766;8.846;2023-11-18T07:43:33;3.50;;;3.20;;
15952;SDS011;8075;47.766;8.846;2023-11-18T07:46:01;3.63;;;3.33;;
15952;SDS011;8075;47.766;8.846;2023-11-18T07:48:27;4.13;;;3.75;;
15952;SDS011;8075;47.766;8.846;2023-11-18T07:50:56;3.63;;;3.33;;
15952;SDS011;8075;47.766;8.846;2023-11-18T07:53:22;4.07;;;3.78;;
15952;SDS011;8075;47.766;8.846;2023-11-18T07:55:48;3.55;;;3.25;;
15952;SDS011;8075;47.766;8.846;2023-11-18T07:58:15;4.40;;;4.10;;
15952;SDS011;8075;47.766;8.846;2023-11-18T08:00:43;4.38;;;4.07;;
15952;SDS011;8075;47.766;8.846;2023-11-18T08:03:13;4.90;;;4.50;;
15952;SDS011;8075;47.766;8.846;2023-11-18T08:05:43;5.60;;;5.20;;
15952;SDS011;8075;47.766;8.846;2023-11-18T08:08:09;5.50;;;5.00;;
15952;SDS011;8075;47.766;8.846;2023-11-18T08:10:37;5.10;;;4.70;;
15952;SDS011;8075;47.766;8.846;2023-11-18T08:13:04;5.68;;;5.28;;
15952;SDS011;8075;47.766;8.846;2023-11-18T08:15:32;5.72;;;5.32;;
15952;SDS011;8075;47.766;8.846;2023-11-18T08:17:57;5.88;;;5.47;;
15952;SDS011;8075;47.766;8.846;2023-11-18T08:20:24;5.45;;;5.05;;
15952;SDS011;8075;47.766;8.846;2023-11-18T08:22:51;4.40;;;4.10;;
15952;SDS011;8075;47.766;8.846;2023-11-18T08:25:18;4.32;;;3.92;;
15952;SDS011;8075;47.766;8.846;2023-11-18T08:27:44;4.15;;;3.85;;
15952;SDS011;8075;47.766;8.846;2023-11-18T08:30:13;4.60;;;4.30;;
15952;SDS011;8075;47.766;8.846;2023-11-18T08:32:39;4.30;;;3.95;;
15952;SDS011;8075;47.766;8.846;2023-11-18T08:35:09;4.50;;;4.20;;
15952;SDS011;8075;47.766;8.846;2023-11-18T08:37:36;5.68;;;5.18;;
15952;SDS011;8075;47.766;8.846;2023-11-18T08:40:03;5.82;;;5.32;;
15952;SDS011;8075;47.766;8.846;2023-11-18T08:42:31;6.05;;;5.53;;
15952;SDS011;8075;47.766;8.846;2023-11-18T08:44:58;6.28;;;5.78;;
15952;SDS011;8075;47.766;8.846;2023-11-18T08:47:26;5.50;;;5.10;;
15952;SDS011;8075;47.766;8.846;2023-11-18T08:49:52;5.28;;;4.88;;
15952;SDS011;8075;47.766;8.846;2023-11-18T08:52:20;5.03;;;4.63;;
15952;SDS011;8075;47.766;8.846;2023-11-18T08:54:46;5.18;;;4.78;;
15952;SDS011;8075;47.766;8.846;2023-11-18T08:57:30;5.32;;;4.93;;
15952;SDS011;8075;47.766;8.846;2023-11-18T09:00:14;4.80;;;4.40;;
15952;SDS011;8075;47.766;8.846;2023-11-18T09:02:58;5.22;;;4.72;;
15952;SDS011;8075;47.766;8.846;2023-11-18T09:05:26;5.33;;;4.93;;
15952;SDS011;8075;47.766;8.846;2023-11-18T09:07:56;4.93;;;4.53;;
15952;SDS011;8075;47.766;8.846;2023-11-18T09:10:23;5.07;;;4.68;;
15952;SDS011;8075;47.766;8.846;2023-11-18T09:12:49;6.00;;;5.50;;
15952;SDS011;8075;47.766;8.846;2023-11-18T09:15:15;6.18;;;5.68;;
15952;SDS011;8075;47.766;8.846;2023-11-18T09:17:47;7.43;;;5.65;;
15952;SDS011;8075;47.766;8.846;2023-11-18T09:20:13;7.68;;;6.43;;
15952;SDS011;8075;47.766;8.846;2023-11-18T09:22:45;6.90;;;6.10;;
15952;SDS011;8075;47.766;8.846;2023-11-18T09:25:11;7.32;;;6.72;;
15952;SDS011;8075;47.766;8.846;2023-11-18T09:27:37;8.35;;;7.60;;
15952;SDS011;8075;47.766;8.846;2023-11-18T09:30:05;8.93;;;7.70;;
15952;SDS011;8075;47.766;8.846;2023-11-18T09:32:39;9.63;;;8.73;;
15952;SDS011;8075;47.766;8.846;2023-11-18T09:35:07;9.82;;;8.93;;
15952;SDS011;8075;47.766;8.846;2023-11-18T09:37:34;10.80;;;9.80;;
15952;SDS011;8075;47.766;8.846;2023-11-18T09:40:01;10.02;;;9.02;;
15952;SDS011;8075;47.766;8.846;2023-11-18T09:42:36;9.20;;;8.02;;
15952;SDS011;8075;47.766;8.846;2023-11-18T09:45:04;10.30;;;8.73;;
15952;SDS011;8075;47.766;8.846;2023-11-18T09:47:32;9.70;;;8.70;;
15952;SDS011;8075;47.766;8.846;2023-11-18T09:50:06;10.57;;;9.47;;
15952;SDS011;8075;47.766;8.846;2023-11-18T09:52:34;10.63;;;9.65;;
15952;SDS011;8075;47.766;8.846;2023-11-18T09:55:07;11.15;;;10.15;;
15952;SDS011;8075;47.766;8.846;2023-11-18T09:57:40;10.38;;;9.38;;
15952;SDS011;8075;47.766;8.846;2023-11-18T10:00:10;10.70;;;9.70;;
15952;SDS011;8075;47.766;8.846;2023-11-18T10:02:51;10.63;;;9.68;;
15952;SDS011;8075;47.766;8.846;2023-11-18T10:05:18;10.50;;;9.50;;
15952;SDS011;8075;47.766;8.846;2023-11-18T10:07:49;11.45;;;10.45;;
15952;SDS011;8075;47.766;8.846;2023-11-18T10:10:16;10.48;;;9.40;;
15952;SDS011;8075;47.766;8.846;2023-11-18T10:12:42;11.10;;;10.10;;
15952;SDS011;8075;47.766;8.846;2023-11-18T10:15:16;11.23;;;10.23;;
15952;SDS011;8075;47.766;8.846;2023-11-18T10:17:44;11.45;;;10.40;;
15952;SDS011;8075;47.766;8.846;2023-11-18T10:20:44;12.15;;;10.23;;
15952;SDS011;8075;47.766;8.846;2023-11-18T10:23:15;15.52;;;12.32;;
15952;SDS011;8075;47.766;8.846;2023-11-18T10:28:26;15.02;;;11.57;;
15952;SDS011;8075;47.766;8.846;2023-11-18T10:30:56;12.60;;;11.30;;
15952;SDS011;8075;47.766;8.846;2023-11-18T10:33:36;15.90;;;12.23;;
15952;SDS011;8075;47.766;8.846;2023-11-18T10:36:03;13.40;;;12.00;;
15952;SDS011;8075;47.766;8.846;2023-11-18T10:38:30;14.88;;;12.00;;
15952;SDS011;8075;47.766;8.846;2023-11-18T10:40:59;14.20;;;12.27;;
15952;SDS011;8075;47.766;8.846;2023-11-18T10:43:26;12.40;;;11.20;;
15952;SDS011;8075;47.766;8.846;2023-11-18T10:46:03;26.38;;;14.70;;
15952;SDS011;8075;47.766;8.846;2023-11-18T10:48:32;16.02;;;12.55;;
15952;SDS011;8075;47.766;8.846;2023-11-18T10:50:58;16.95;;;13.85;;
15952;SDS011;8075;47.766;8.846;2023-11-18T10:53:25;15.02;;;13.05;;
15952;SDS011;8075;47.766;8.846;2023-11-18T10:55:53;15.20;;;13.60;;
15952;SDS011;8075;47.766;8.846;2023-11-18T10:58:19;16.75;;;14.18;;
15952;SDS011;8075;47.766;8.846;2023-11-18T11:00:51;14.85;;;13.35;;
15952;SDS011;8075;47.766;8.846;2023-11-18T11:03:20;14.95;;;13.35;;
15952;SDS011;8075;47.766;8.846;2023-11-18T11:05:48;14.63;;;13.13;;
15952;SDS011;8075;47.766;8.846;2023-11-18T11:08:14;16.00;;;13.80;;
15952;SDS011;8075;47.766;8.846;2023-11-18T11:10:43;16.20;;;14.40;;
15952;SDS011;8075;47.766;8.846;2023-11-18T11:13:10;17.40;;;15.25;;
15952;SDS011;8075;47.766;8.846;2023-11-18T11:15:41;17.70;;;15.18;;
15952;SDS011;8075;47.766;8.846;2023-11-18T11:18:14;18.48;;;15.18;;
15952;SDS011;8075;47.766;8.846;2023-11-18T11:20:52;19.27;;;15.60;;
15952;SDS011;8075;47.766;8.846;2023-11-18T11:23:21;18.90;;;15.52;;
15952;SDS011;8075;47.766;8.846;2023-11-18T11:26:13;17.25;;;15.05;;
15952;SDS011;8075;47.766;8.846;2023-11-18T11:28:57;28.38;;;17.50;;
15952;SDS011;8075;47.766;8.846;2023-11-18T11:31:31;22.70;;;16.98;;
15952;SDS011;8075;47.766;8.846;2023-11-18T11:34:04;22.27;;;16.95;;
15952;SDS011;8075;47.766;8.846;2023-11-18T11:36:42;22.67;;;16.48;;
15952;SDS011;8075;47.766;8.846;2023-11-18T11:39:08;21.45;;;15.80;;
15952;SDS011;8075;47.766;8.846;2023-11-18T11:41:41;20.67;;;16.57;;
15952;SDS011;8075;47.766;8.846;2023-11-18T11:44:10;24.77;;;16.13;;
15952;SDS011;8075;47.766;8.846;2023-11-18T11:46:38;19.57;;;15.67;;
15952;SDS011;8075;47.766;8.846;2023-11-18T11:49:07;20.48;;;15.57;;
15952;SDS011;8075;47.766;8.846;2023-11-18T11:54:34;25.67;;;17.20;;
15952;SDS011;8075;47.766;8.846;2023-11-18T11:57:02;22.95;;;16.17;;
15952;SDS011;8075;47.766;8.846;2023-11-18T12:02:12;19.42;;;15.18;;
15952;SDS011;8075;47.766;8.846;2023-11-18T12:04:43;21.00;;;14.90;;
15952;SDS011;8075;47.766;8.846;2023-11-18T12:07:09;22.87;;;14.97;;
15952;SDS011;8075;47.766;8.846;2023-11-18T12:09:40;20.33;;;14.75;;
15952;SDS011;8075;47.766;8.846;2023-11-18T12:12:18;19.33;;;15.90;;
15952;SDS011;8075;47.766;8.846;2023-11-18T12:17:17;26.52;;;19.40;;
15952;SDS011;8075;47.766;8.846;2023-11-18T12:19:47;22.53;;;18.13;;
15952;SDS011;8075;47.766;8.846;2023-11-18T12:22:19;21.30;;;17.42;;
15952;SDS011;8075;47.766;8.846;2023-11-18T12:30:02;23.83;;;17.38;;
15952;SDS011;8075;47.766;8.846;2023-11-18T12:35:19;21.30;;;17.27;;
15952;SDS011;8075;47.766;8.846;2023-11-18T12:40:23;20.63;;;16.48;;
15952;SDS011;8075;47.766;8.846;2023-11-18T12:43:02;23.75;;;17.40;;
15952;SDS011;8075;47.766;8.846;2023-11-18T12:45:41;19.98;;;17.02;;
15952;SDS011;8075;47.766;8.846;2023-11-18T12:48:09;12.95;;;10.80;;
15952;SDS011;8075;47.766;8.846;2023-11-18T12:50:41;8.45;;;7.65;;
15952;SDS011;8075;47.766;8.846;2023-11-18T12:53:10;8.82;;;7.93;;
15952;SDS011;8075;47.766;8.846;2023-11-18T12:55:39;9.60;;;8.60;;
15952;SDS011;8075;47.766;8.846;2023-11-18T12:58:06;14.32;;;9.23;;
15952;SDS011;8075;47.766;8.846;2023-11-18T13:00:32;9.65;;;8.73;;
15952;SDS011;8075;47.766;8.846;2023-11-18T13:03:00;10.13;;;8.73;;
15952;SDS011;8075;47.766;8.846;2023-11-18T13:05:26;9.40;;;8.40;;
15952;SDS011;8075;47.766;8.846;2023-11-18T13:07:55;10.00;;;8.80;;
15952;SDS011;8075;47.766;8.846;2023-11-18T13:10:22;9.82;;;8.82;;
15952;SDS011;8075;47.766;8.846;2023-11-18T13:12:49;9.10;;;8.15;;
15952;SDS011;8075;47.766;8.846;2023-11-18T13:15:16;10.48;;;8.50;;
15952;SDS011;8075;47.766;8.846;2023-11-18T13:18:01;9.68;;;7.60;;
15952;SDS011;8075;47.766;8.846;2023-11-18T13:20:34;9.77;;;8.90;;
15952;SDS011;8075;47.766;8.846;2023-11-18T13:23:03;9.13;;;7.55;;
15952;SDS011;8075;47.766;8.846;2023-11-18T13:25:35;9.23;;;7.90;;
15952;SDS011;8075;47.766;8.846;2023-11-18T13:28:04;7.32;;;6.63;;
15952;SDS011;8075;47.766;8.846;2023-11-18T13:30:30;8.98;;;8.07;;
15952;SDS011;8075;47.766;8.846;2023-11-18T13:32:57;7.90;;;7.28;;
15952;SDS011;8075;47.766;8.846;2023-11-18T13:35:23;8.27;;;7.47;;
15952;SDS011;8075;47.766;8.846;2023-11-18T13:37:49;8.90;;;8.02;;
15952;SDS011;8075;47.766;8.846;2023-11-18T13:40:15;10.50;;;9.43;;
15952;SDS011;8075;47.766;8.846;2023-11-18T13:42:45;8.93;;;8.02;;
15952;SDS011;8075;47.766;8.846;2023-11-18T13:45:14;15.20;;;8.93;;
15952;SDS011;8075;47.766;8.846;2023-11-18T13:47:49;9.98;;;8.32;;
15952;SDS011;8075;47.766;8.846;2023-11-18T13:50:16;8.02;;;7.22;;
15952;SDS011;8075;47.766;8.846;2023-11-18T13:52:42;10.98;;;7.85;;
15952;SDS011;8075;47.766;8.846;2023-11-18T13:55:08;9.05;;;7.22;;
15952;SDS011;8075;47.766;8.846;2023-11-18T13:57:42;8.70;;;7.88;;
15952;SDS011;8075;47.766;8.846;2023-11-18T14:00:08;9.75;;;8.90;;
15952;SDS011;8075;47.766;8.846;2023-11-18T14:02:40;8.80;;;8.10;;
15952;SDS011;8075;47.766;8.846;2023-11-18T14:05:14;9.00;;;8.30;;
15952;SDS011;8075;47.766;8.846;2023-11-18T14:07:41;8.40;;;7.70;;
15952;SDS011;8075;47.766;8.846;2023-11-18T14:10:08;9.13;;;8.23;;
15952;SDS011;8075;47.766;8.846;2023-11-18T14:12:38;8.45;;;7.68;;
15952;SDS011;8075;47.766;8.846;2023-11-18T14:15:04;7.95;;;7.25;;
15952;SDS011;8075;47.766;8.846;2023-11-18T14:17:30;8.57;;;7.78;;
15952;SDS011;8075;47.766;8.846;2023-11-18T14:19:56;8.15;;;7.45;;
15952;SDS011;8075;47.766;8.846;2023-11-18T14:22:23;8.00;;;7.23;;
15952;SDS011;8075;47.766;8.846;2023-11-18T14:24:49;7.25;;;6.55;;
15952;SDS011;8075;47.766;8.846;2023-11-18T14:27:15;7.68;;;6.97;;
15952;SDS011;8075;47.766;8.846;2023-11-18T14:29:41;8.00;;;7.30;;
15952;SDS011;8075;47.766;8.846;2023-11-18T14:32:07;8.32;;;7.47;;
15952;SDS011;8075;47.766;8.846;2023-11-18T14:34:33;7.25;;;6.55;;
15952;SDS011;8075;47.766;8.846;2023-11-18T14:36:59;6.65;;;6.07;;
15952;SDS011;8075;47.766;8.846;2023-11-18T14:39:26;6.10;;;5.60;;
15952;SDS011;8075;47.766;8.846;2023-11-18T14:41:52;6.15;;;5.38;;
15952;SDS011;8075;47.766;8.846;2023-11-18T14:44:18;6.05;;;5.45;;
15952;SDS011;8075;47.766;8.846;2023-11-18T14:46:45;11.20;;;5.55;;
15952;SDS011;8075;47.766;8.846;2023-11-18T14:49:12;5.35;;;4.85;;
15952;SDS011;8075;47.766;8.846;2023-11-18T14:51:38;5.57;;;5.07;;
15952;SDS011;8075;47.766;8.846;2023-11-18T14:54:05;5.45;;;5.03;;
15952;SDS011;8075;47.766;8.846;2023-11-18T14:56:31;5.75;;;5.25;;
15952;SDS011;8075;47.766;8.846;2023-11-18T14:58:57;5.57;;;5.17;;
15952;SDS011;8075;47.766;8.846;2023-11-18T15:01:24;6.22;;;5.72;;
15952;SDS011;8075;47.766;8.846;2023-11-18T15:03:51;11.05;;;9.57;;
15952;SDS011;8075;47.766;8.846;2023-11-18T15:06:26;7.10;;;6.30;;
15952;SDS011;8075;47.766;8.846;2023-11-18T15:08:52;6.15;;;5.63;;
15952;SDS011;8075;47.766;8.846;2023-11-18T15:11:22;5.90;;;5.40;;
15952;SDS011;8075;47.766;8.846;2023-11-18T15:13:48;7.32;;;6.70;;
15952;SDS011;8075;47.766;8.846;2023-11-18T15:16:14;7.25;;;6.65;;
15952;SDS011;8075;47.766;8.846;2023-11-18T15:18:43;7.45;;;6.85;;
15952;SDS011;8075;47.766;8.846;2023-11-18T15:21:12;9.00;;;8.30;;
15952;SDS011;8075;47.766;8.846;2023-11-18T15:23:40;8.05;;;7.40;;
15952;SDS011;8075;47.766;8.846;2023-11-18T15:26:07;9.57;;;8.40;;